createdAt,value
2022-11-19T00:02:19.254Z,84.64
2022-11-19T00:04:45.883Z,85.00
2022-11-19T00:07:12.363Z,84.59
2022-11-19T00:09:38.943Z,84.63
2022-11-19T00:12:05.508Z,85.55
2022-11-19T00:14:32.008Z,86.05
2022-11-19T00:16:58.487Z,85.54
2022-11-19T00:19:25.020Z,85.29
2022-11-19T00:21:51.586Z,83.67
2022-11-19T00:24:18.112Z,82.86
2022-11-19T00:26:44.591Z,82.66
2022-11-19T00:29:17.923Z,81.93
2022-11-19T00:31:44.693Z,81.47
2022-11-19T00:34:14.037Z,81.23
2022-11-19T00:36:40.484Z,80.62
2022-11-19T00:39:06.943Z,80.51
2022-11-19T00:41:36.800Z,81.72
2022-11-19T00:44:05.817Z,81.92
2022-11-19T00:46:32.694Z,80.98
2022-11-19T00:49:00.026Z,81.02
2022-11-19T00:51:29.504Z,80.39
2022-11-19T00:53:57.215Z,79.81
2022-11-19T00:56:26.058Z,79.68
2022-11-19T00:58:53.095Z,80.20
2022-11-19T01:01:21.915Z,80.18
2022-11-19T01:03:51.417Z,80.96
2022-11-19T01:06:20.030Z,80.76
2022-11-19T01:08:53.218Z,81.41
2022-11-19T01:11:25.328Z,81.65
2022-11-19T01:13:51.999Z,80.97
2022-11-19T01:16:23.728Z,81.72
2022-11-19T01:18:51.209Z,81.70
2022-11-19T01:21:19.359Z,82.25
2022-11-19T01:23:46.090Z,83.31
2022-11-19T01:26:15.245Z,83.01
2022-11-19T01:28:42.877Z,83.23
2022-11-19T01:31:21.806Z,83.24
2022-11-19T01:33:48.716Z,84.07
2022-11-19T01:36:21.571Z,83.93
2022-11-19T01:38:48.541Z,84.54
2022-11-19T01:41:15.123Z,84.33
2022-11-19T01:44:02.610Z,83.94
2022-11-19T01:46:34.462Z,82.89
2022-11-19T01:49:06.337Z,82.45
2022-11-19T01:51:46.315Z,83.35
2022-11-19T01:54:18.899Z,81.79
2022-11-19T01:56:45.410Z,82.91
2022-11-19T01:59:17.602Z,83.06
2022-11-19T02:01:44.986Z,82.59
2022-11-19T02:04:13.269Z,82.49
2022-11-19T02:06:39.803Z,82.14
2022-11-19T02:09:06.276Z,82.30
2022-11-19T02:12:03.460Z,81.37
2022-11-19T02:14:32.907Z,81.21
2022-11-19T02:17:11.742Z,82.08
2022-11-19T02:20:15.958Z,83.14
2022-11-19T02:23:01.027Z,82.85
2022-11-19T02:25:48.580Z,82.92
2022-11-19T02:28:31.610Z,83.23
2022-11-19T02:31:18.723Z,84.18
2022-11-19T02:33:55.461Z,84.18
2022-11-19T02:36:40.734Z,83.36
2022-11-19T02:39:20.171Z,85.02
2022-11-19T02:41:54.011Z,84.46
2022-11-19T02:44:29.254Z,84.03
2022-11-19T02:46:56.643Z,83.37
2022-11-19T02:49:26.230Z,81.53
2022-11-19T02:51:52.850Z,82.40
2022-11-19T02:54:19.414Z,82.05
2022-11-19T02:56:56.978Z,81.69
2022-11-19T02:59:30.164Z,82.41
2022-11-19T03:01:57.255Z,83.02
2022-11-19T03:04:27.608Z,81.74
2022-11-19T03:06:54.147Z,83.18
2022-11-19T03:09:21.271Z,81.78
2022-11-19T03:11:57.851Z,80.53
2022-11-19T03:14:26.838Z,81.03
2022-11-19T03:16:58.816Z,80.43
2022-11-19T03:19:36.585Z,81.34
2022-11-19T03:22:22.883Z,80.60
2022-11-19T03:24:49.503Z,80.42
2022-11-19T03:27:21.344Z,80.44
2022-11-19T03:29:50.110Z,79.70
2022-11-19T03:32:19.827Z,80.28
2022-11-19T03:34:48.620Z,79.77
2022-11-19T03:37:17.038Z,79.75
2022-11-19T03:39:43.917Z,79.92
2022-11-19T03:42:12.740Z,78.77
2022-11-19T03:44:49.689Z,80.62
2022-11-19T03:47:20.034Z,79.84
2022-11-19T03:49:50.431Z,79.91
2022-11-19T03:52:18.002Z,80.42
2022-11-19T03:54:44.630Z,79.67
2022-11-19T03:57:13.333Z,80.44
2022-11-19T03:59:39.850Z,79.83
2022-11-19T04:02:08.604Z,79.90
2022-11-19T04:04:35.278Z,80.12
2022-11-19T04:07:01.793Z,80.57
2022-11-19T04:09:28.262Z,81.12
2022-11-19T04:14:40.696Z,79.79
2022-11-19T04:17:18.498Z,80.09
2022-11-19T04:19:45.012Z,79.52
2022-11-19T04:22:17.591Z,78.73
2022-11-19T04:24:44.204Z,78.97
2022-11-19T04:27:11.027Z,77.23
2022-11-19T04:29:37.702Z,77.34
2022-11-19T04:32:04.582Z,76.78
2022-11-19T04:34:31.202Z,77.16
2022-11-19T04:36:57.675Z,78.71
2022-11-19T04:39:25.279Z,78.88
2022-11-19T04:41:51.764Z,78.82
2022-11-19T04:44:18.227Z,77.90
2022-11-19T04:46:44.737Z,78.04
2022-11-19T04:49:11.204Z,76.89
2022-11-19T04:51:37.790Z,77.26
2022-11-19T04:54:04.457Z,76.42
2022-11-19T04:56:30.938Z,76.05
2022-11-19T04:58:57.403Z,76.54
2022-11-19T05:01:24.018Z,76.60
2022-11-19T05:03:50.525Z,77.54
2022-11-19T05:06:17.107Z,76.84
2022-11-19T05:08:43.704Z,77.95
2022-11-19T05:11:10.285Z,77.51
2022-11-19T05:13:37.358Z,77.29
2022-11-19T05:16:04.391Z,76.61
2022-11-19T05:18:30.882Z,77.04
2022-11-19T05:20:57.394Z,76.59
2022-11-19T05:23:24.019Z,76.57
2022-11-19T05:25:51.041Z,77.31
2022-11-19T05:28:17.747Z,77.87
2022-11-19T05:30:44.621Z,77.90
2022-11-19T05:33:11.247Z,77.47
2022-11-19T05:35:37.686Z,77.92
2022-11-19T05:38:04.204Z,77.73
2022-11-19T05:40:30.953Z,78.55
2022-11-19T05:43:03.828Z,78.39
2022-11-19T05:45:30.725Z,78.18
2022-11-19T05:47:58.074Z,77.27
2022-11-19T05:50:26.567Z,77.63
2022-11-19T05:52:53.032Z,75.08
2022-11-19T05:55:19.475Z,74.39
2022-11-19T05:57:46.025Z,75.37
2022-11-19T06:00:13.866Z,74.90
2022-11-19T06:02:40.448Z,76.41
2022-11-19T06:05:07.283Z,76.52
2022-11-19T06:07:34.120Z,75.36
2022-11-19T06:10:00.642Z,75.63
2022-11-19T06:12:27.176Z,76.31
2022-11-19T06:14:53.694Z,76.36
2022-11-19T06:17:20.162Z,76.57
2022-11-19T06:19:46.635Z,77.38
2022-11-19T06:22:13.612Z,77.36
2022-11-19T06:24:40.311Z,77.16
2022-11-19T06:27:06.859Z,77.61
2022-11-19T06:29:33.394Z,77.52
2022-11-19T06:31:59.841Z,76.46
2022-11-19T06:34:26.955Z,76.87
2022-11-19T06:36:53.499Z,77.79
2022-11-19T06:39:23.092Z,78.45
2022-11-19T06:41:49.758Z,79.33
2022-11-19T06:44:16.305Z,80.05
2022-11-19T06:46:42.818Z,80.66
2022-11-19T06:49:09.691Z,80.98
2022-11-19T06:51:36.421Z,80.00
2022-11-19T06:54:02.962Z,80.12
2022-11-19T06:56:29.395Z,79.90
2022-11-19T06:58:56.948Z,78.30
2022-11-19T07:01:23.971Z,79.14
2022-11-19T07:03:50.963Z,79.05
2022-11-19T07:06:17.439Z,77.72
2022-11-19T07:08:43.906Z,76.62
2022-11-19T07:11:10.672Z,75.25
2022-11-19T07:13:37.137Z,75.09
2022-11-19T07:16:03.698Z,75.06
2022-11-19T07:18:30.506Z,73.17
2022-11-19T07:20:57.480Z,73.68
2022-11-19T07:23:24.112Z,73.07
2022-11-19T07:25:50.539Z,73.35
2022-11-19T07:28:17.114Z,72.70
2022-11-19T07:30:43.647Z,72.65
2022-11-19T07:33:10.300Z,71.80
2022-11-19T07:35:36.820Z,73.15
2022-11-19T07:38:03.703Z,72.10
2022-11-19T07:40:31.067Z,70.67
2022-11-19T07:42:57.537Z,71.81
2022-11-19T07:45:24.000Z,72.51
2022-11-19T07:47:50.463Z,74.15
2022-11-19T07:50:17.715Z,74.87
2022-11-19T07:52:44.549Z,74.31
2022-11-19T07:55:11.549Z,74.35
2022-11-19T07:57:38.298Z,74.08
2022-11-19T08:00:06.577Z,74.99
2022-11-19T08:02:33.130Z,73.43
2022-11-19T08:05:00.344Z,73.96
2022-11-19T08:07:27.198Z,73.77
2022-11-19T08:09:56.687Z,74.26
2022-11-19T08:12:29.400Z,73.81
2022-11-19T08:14:56.050Z,74.95
2022-11-19T08:17:22.682Z,74.61
2022-11-19T08:19:49.215Z,75.52
2022-11-19T08:22:15.779Z,75.13
2022-11-19T08:24:42.286Z,76.07
2022-11-19T08:27:08.829Z,75.36
2022-11-19T08:29:35.754Z,74.60
2022-11-19T08:32:02.245Z,73.41
2022-11-19T08:34:29.747Z,71.50
2022-11-19T08:36:56.291Z,70.85
2022-11-19T08:39:22.762Z,69.67
2022-11-19T08:41:49.252Z,68.46
2022-11-19T08:44:16.620Z,66.25
2022-11-19T08:46:43.959Z,67.31
2022-11-19T08:49:11.051Z,65.98
2022-11-19T08:51:38.720Z,66.25
2022-11-19T08:54:08.321Z,67.35
2022-11-19T08:56:34.853Z,67.73
2022-11-19T08:59:03.017Z,68.65
2022-11-19T09:01:30.169Z,69.48
2022-11-19T09:03:56.743Z,69.84
2022-11-19T09:06:23.326Z,68.87
2022-11-19T09:08:49.811Z,69.40
2022-11-19T09:11:18.064Z,69.94
2022-11-19T09:13:44.642Z,69.87
2022-11-19T09:16:14.117Z,70.13
2022-11-19T09:18:40.828Z,70.69
2022-11-19T09:21:09.087Z,70.06
2022-11-19T09:23:36.332Z,69.81
2022-11-19T09:26:05.998Z,70.12
2022-11-19T09:28:32.955Z,68.93
2022-11-19T09:31:01.693Z,67.95
2022-11-19T09:33:30.045Z,67.94
2022-11-19T09:35:56.997Z,67.18
2022-11-19T09:38:23.609Z,66.45
2022-11-19T09:40:53.890Z,67.22
2022-11-19T09:43:26.590Z,67.66
2022-11-19T09:46:30.724Z,67.80
2022-11-19T09:49:03.223Z,67.15
2022-11-19T09:51:32.532Z,67.50
2022-11-19T09:54:14.559Z,66.42
2022-11-19T09:56:46.276Z,67.25
2022-11-19T09:59:21.983Z,67.67
2022-11-19T10:01:48.435Z,69.03
2022-11-19T10:04:22.623Z,68.99
2022-11-19T10:07:04.834Z,68.93
2022-11-19T10:10:01.649Z,68.88
2022-11-19T10:12:58.480Z,67.76
2022-11-19T10:15:37.964Z,67.56
2022-11-19T10:18:42.134Z,66.29
2022-11-19T10:21:17.039Z,66.90
2022-11-19T10:23:48.489Z,66.01
2022-11-19T10:26:21.084Z,65.26
2022-11-19T10:29:48.645Z,64.67
2022-11-19T10:35:19.132Z,64.76
2022-11-19T10:38:16.470Z,64.18
2022-11-19T10:40:54.881Z,62.73
2022-11-19T10:43:57.802Z,62.67
2022-11-19T10:46:28.917Z,64.29
2022-11-19T10:49:06.411Z,63.74
2022-11-19T10:51:42.151Z,63.35
2022-11-19T10:54:23.042Z,63.75
2022-11-19T10:56:50.610Z,62.89
2022-11-19T10:59:23.470Z,63.80
2022-11-19T11:01:57.587Z,62.18
2022-11-19T11:04:31.175Z,61.58
2022-11-19T11:07:02.888Z,60.51
2022-11-19T11:09:37.979Z,60.12
2022-11-19T11:12:11.416Z,56.74
2022-11-19T11:14:42.124Z,57.73
2022-11-19T11:17:25.523Z,55.98
2022-11-19T11:20:19.616Z,56.83
2022-11-19T11:22:49.188Z,57.76
2022-11-19T11:25:21.091Z,57.27
2022-11-19T11:28:04.596Z,58.18
2022-11-19T11:30:31.227Z,58.94
2022-11-19T11:32:57.766Z,58.65
2022-11-19T11:35:35.887Z,59.34
2022-11-19T11:38:03.431Z,57.99
2022-11-19T11:40:30.371Z,58.54
2022-11-19T11:42:57.239Z,60.19
2022-11-19T11:45:34.476Z,59.90
2022-11-19T11:48:11.945Z,57.49
2022-11-19T11:50:38.488Z,56.59
2022-11-19T11:53:09.187Z,57.56
2022-11-19T11:55:35.805Z,56.68
2022-11-19T11:58:05.027Z,54.95
2022-11-19T12:00:37.060Z,55.14
2022-11-19T12:03:04.754Z,54.27
2022-11-19T12:06:08.479Z,54.11
2022-11-19T12:09:02.705Z,52.41
2022-11-19T12:11:35.042Z,53.36
2022-11-19T12:14:11.255Z,53.20
2022-11-19T12:17:06.370Z,52.42
2022-11-19T12:20:03.411Z,53.99
2022-11-19T12:22:45.687Z,53.71
2022-11-19T12:25:24.363Z,52.28
2022-11-19T12:28:19.653Z,52.91
2022-11-19T12:31:08.147Z,53.10
2022-11-19T12:34:05.575Z,53.41
2022-11-19T12:36:51.397Z,52.80
2022-11-19T12:39:47.010Z,52.56
2022-11-19T12:42:50.214Z,51.60
2022-11-19T12:45:28.077Z,50.89
2022-11-19T12:48:15.227Z,52.30
2022-11-19T12:50:52.675Z,52.48
2022-11-19T12:53:27.780Z,53.20
2022-11-19T12:56:29.350Z,54.36
2022-11-19T12:59:02.216Z,54.55
2022-11-19T13:01:33.925Z,53.48
2022-11-19T13:04:17.151Z,54.39
2022-11-19T13:06:58.408Z,53.56
2022-11-19T13:09:38.863Z,54.34
2022-11-19T13:12:11.598Z,55.89
2022-11-19T13:14:45.209Z,56.78
2022-11-19T13:17:18.938Z,54.01
2022-11-19T13:19:50.302Z,52.90
2022-11-19T13:22:20.704Z,53.05
2022-11-19T13:24:54.758Z,52.67
2022-11-19T13:27:24.236Z,54.29
2022-11-19T13:29:56.854Z,52.22
2022-11-19T13:32:27.143Z,55.52
2022-11-19T13:34:59.842Z,55.06
2022-11-19T13:37:38.405Z,53.97
2022-11-19T13:40:35.442Z,55.67
2022-11-19T13:43:30.469Z,56.36
2022-11-19T13:46:08.195Z,56.61
2022-11-19T13:48:38.991Z,55.08
2022-11-19T13:51:07.328Z,54.03
2022-11-19T13:53:44.466Z,55.07
2022-11-19T13:56:13.103Z,56.38
2022-11-19T13:58:45.937Z,53.46
2022-11-19T14:01:42.877Z,54.80
2022-11-19T14:04:24.245Z,54.16
2022-11-19T14:06:56.853Z,54.46
2022-11-19T14:09:28.961Z,51.55
2022-11-19T14:12:03.710Z,52.11
2022-11-19T14:14:46.701Z,52.65
2022-11-19T14:17:17.704Z,53.44
2022-11-19T14:19:54.054Z,56.47
2022-11-19T14:22:31.709Z,59.95
2022-11-19T14:24:58.744Z,60.73
2022-11-19T14:27:27.930Z,62.11
2022-11-19T14:30:11.794Z,61.56
2022-11-19T14:32:51.143Z,60.08
2022-11-19T14:35:23.179Z,59.61
2022-11-19T14:37:52.997Z,59.44
2022-11-19T14:40:22.326Z,58.93
2022-11-19T14:43:01.170Z,59.22
2022-11-19T14:45:27.791Z,58.50
2022-11-19T14:48:02.904Z,58.53
2022-11-19T14:50:30.716Z,58.03
2022-11-19T14:52:59.534Z,58.71
2022-11-19T14:55:28.678Z,54.88
2022-11-19T14:58:01.379Z,54.84
2022-11-19T15:00:37.300Z,53.52
2022-11-19T15:03:06.923Z,54.24
2022-11-19T15:05:36.050Z,54.41
2022-11-19T15:08:17.949Z,54.57
2022-11-19T15:11:07.302Z,54.98
2022-11-19T15:13:38.491Z,56.63
2022-11-19T15:16:20.813Z,56.63
2022-11-19T15:19:10.905Z,56.08
2022-11-19T15:21:55.704Z,56.73
2022-11-19T15:24:37.546Z,56.83
2022-11-19T15:27:25.943Z,58.80
2022-11-19T15:30:04.003Z,60.36
2022-11-19T15:32:49.009Z,60.66
2022-11-19T15:35:38.392Z,61.52
2022-11-19T15:38:20.277Z,62.26
2022-11-19T15:40:49.565Z,63.28
2022-11-19T15:43:27.774Z,63.86
2022-11-19T15:46:03.421Z,64.26
2022-11-19T15:48:55.006Z,64.49
2022-11-19T15:51:21.867Z,64.91
2022-11-19T15:54:02.512Z,65.78
2022-11-19T15:56:32.107Z,65.13
2022-11-19T15:58:59.659Z,65.97
2022-11-19T16:01:26.378Z,65.48
2022-11-19T16:03:53.728Z,65.97
2022-11-19T16:06:23.093Z,66.40
2022-11-19T16:08:58.150Z,66.71
2022-11-19T16:11:34.166Z,66.85
2022-11-19T16:14:02.425Z,67.46
2022-11-19T16:16:29.499Z,66.79
2022-11-19T16:18:56.021Z,66.53
2022-11-19T16:21:29.574Z,66.84
2022-11-19T16:23:56.165Z,66.97
2022-11-19T16:26:22.924Z,66.88
2022-11-19T16:28:49.447Z,67.70
2022-11-19T16:31:15.935Z,67.39
2022-11-19T16:33:42.711Z,68.50
2022-11-19T16:36:17.939Z,67.87
2022-11-19T16:38:50.027Z,67.80
2022-11-19T16:41:27.007Z,67.34
2022-11-19T16:43:53.631Z,67.22
2022-11-19T16:46:21.131Z,67.36
2022-11-19T16:48:52.982Z,67.67
2022-11-19T16:51:31.485Z,68.11
2022-11-19T16:53:58.118Z,67.99
2022-11-19T16:56:24.749Z,68.64
2022-11-19T16:58:59.859Z,68.38
2022-11-19T17:01:29.409Z,68.42
2022-11-19T17:04:07.702Z,68.65
2022-11-19T17:06:36.365Z,68.75
2022-11-19T17:09:05.162Z,68.35
2022-11-19T17:11:37.884Z,68.99
2022-11-19T17:14:16.503Z,68.71
2022-11-19T17:16:51.547Z,68.74
2022-11-19T17:19:31.687Z,69.12
2022-11-19T17:22:04.003Z,68.62
2022-11-19T17:24:42.541Z,68.36
2022-11-19T17:27:26.766Z,67.54
2022-11-19T17:29:58.718Z,67.70
2022-11-19T17:32:25.233Z,67.39
2022-11-19T17:34:51.755Z,67.41
2022-11-19T17:37:18.243Z,67.83
2022-11-19T17:39:44.752Z,67.54
2022-11-19T17:42:11.412Z,67.35
2022-11-19T17:44:38.275Z,67.12
2022-11-19T17:47:23.631Z,66.73
2022-11-19T17:49:51.242Z,66.94
2022-11-19T17:52:21.581Z,66.09
2022-11-19T17:54:49.352Z,66.45
2022-11-19T17:57:15.842Z,65.86
2022-11-19T17:59:42.368Z,65.72
2022-11-19T18:02:16.944Z,65.36
2022-11-19T18:04:44.345Z,66.41
2022-11-19T18:07:11.520Z,66.11
2022-11-19T18:09:38.888Z,66.62
2022-11-19T18:12:14.407Z,66.61
2022-11-19T18:14:41.357Z,66.98
2022-11-19T18:17:11.971Z,67.90
2022-11-19T18:19:38.486Z,67.75
2022-11-19T18:22:05.078Z,67.91
2022-11-19T18:24:31.581Z,67.77
2022-11-19T18:26:58.101Z,67.04
2022-11-19T18:29:24.797Z,67.05
2022-11-19T18:31:51.320Z,67.37
2022-11-19T18:34:22.637Z,67.07
2022-11-19T18:36:49.527Z,67.42
2022-11-19T18:39:16.032Z,67.65
2022-11-19T18:41:42.702Z,68.10
2022-11-19T18:44:14.191Z,67.60
2022-11-19T18:46:40.710Z,67.65
2022-11-19T18:49:07.203Z,67.72
2022-11-19T18:51:33.694Z,67.33
2022-11-19T18:54:00.180Z,67.64
2022-11-19T18:56:26.732Z,68.20
2022-11-19T18:58:53.687Z,68.29
2022-11-19T19:01:20.276Z,67.97
2022-11-19T19:03:47.004Z,67.89
2022-11-19T19:06:13.540Z,67.48
2022-11-19T19:08:40.049Z,68.22
2022-11-19T19:11:07.945Z,68.02
2022-11-19T19:13:34.439Z,68.50
2022-11-19T19:16:00.937Z,67.58
2022-11-19T19:18:27.420Z,67.65
2022-11-19T19:20:53.900Z,67.73
2022-11-19T19:23:20.439Z,67.76
2022-11-19T19:25:46.989Z,67.99
2022-11-19T19:28:13.486Z,67.58
2022-11-19T19:30:39.982Z,68.34
2022-11-19T19:33:06.488Z,68.09
2022-11-19T19:35:33.043Z,68.34
2022-11-19T19:37:59.576Z,68.44
2022-11-19T19:40:26.087Z,68.57
2022-11-19T19:42:52.567Z,68.58
2022-11-19T19:45:19.183Z,68.08
2022-11-19T19:47:45.672Z,68.96
2022-11-19T19:50:12.383Z,68.35
2022-11-19T19:52:38.852Z,68.86
2022-11-19T19:55:05.879Z,68.86
2022-11-19T19:57:32.450Z,68.62
2022-11-19T19:59:58.967Z,69.18
2022-11-19T20:02:25.493Z,67.97
2022-11-19T20:04:52.030Z,68.44
2022-11-19T20:07:18.571Z,68.53
2022-11-19T20:09:45.077Z,67.41
2022-11-19T20:12:11.565Z,67.24
2022-11-19T20:14:38.124Z,68.02
2022-11-19T20:17:04.626Z,67.97
2022-11-19T20:19:31.143Z,68.13
2022-11-19T20:21:57.701Z,68.18
2022-11-19T20:24:24.215Z,67.82
2022-11-19T20:26:50.767Z,67.87
2022-11-19T20:29:17.233Z,68.14
2022-11-19T20:31:48.055Z,68.22
2022-11-19T20:34:15.245Z,68.19
2022-11-19T20:36:42.359Z,67.79
2022-11-19T20:39:09.039Z,67.64
2022-11-19T20:41:35.546Z,66.43
2022-11-19T20:44:02.652Z,67.26
2022-11-19T20:46:29.118Z,66.43
2022-11-19T20:48:55.605Z,65.75
2022-11-19T20:51:22.100Z,66.08
2022-11-19T20:53:48.593Z,66.32
2022-11-19T20:56:15.086Z,67.59
2022-11-19T20:58:41.611Z,67.55
2022-11-19T21:01:08.954Z,67.61
2022-11-19T21:03:35.507Z,67.42
2022-11-19T21:06:03.460Z,67.58
2022-11-19T21:08:31.859Z,67.15
2022-11-19T21:11:00.172Z,67.31
2022-11-19T21:13:26.714Z,66.87
2022-11-19T21:15:54.727Z,67.18
2022-11-19T21:18:24.255Z,67.71
2022-11-19T21:20:51.470Z,67.81
2022-11-19T21:23:18.943Z,67.96
2022-11-19T21:25:45.850Z,67.47
2022-11-19T21:28:12.406Z,66.48
2022-11-19T21:30:38.939Z,67.53
2022-11-19T21:33:05.498Z,67.15
2022-11-19T21:35:31.994Z,67.41
2022-11-19T21:37:58.496Z,65.91
2022-11-19T21:40:25.071Z,65.94
2022-11-19T21:42:51.535Z,65.49
2022-11-19T21:45:18.032Z,66.08
2022-11-19T21:47:44.527Z,65.75
2022-11-19T21:50:10.998Z,65.66
2022-11-19T21:52:37.535Z,64.81
2022-11-19T21:55:04.377Z,64.33
2022-11-19T21:57:30.959Z,65.00
2022-11-19T21:59:57.486Z,64.79
2022-11-19T22:02:26.479Z,65.88
2022-11-19T22:04:52.965Z,64.77
2022-11-19T22:07:19.498Z,64.00
2022-11-19T22:09:46.050Z,62.66
2022-11-19T22:12:12.652Z,63.30
2022-11-19T22:14:39.186Z,65.38
2022-11-19T22:17:05.647Z,65.09
2022-11-19T22:19:32.317Z,66.05
2022-11-19T22:21:58.823Z,66.27
2022-11-19T22:24:25.524Z,66.74
2022-11-19T22:26:52.076Z,65.73
2022-11-19T22:29:18.782Z,66.80
2022-11-19T22:31:45.692Z,68.30
2022-11-19T22:34:12.588Z,69.26
2022-11-19T22:36:39.180Z,69.54
2022-11-19T22:39:05.804Z,69.55
2022-11-19T22:41:32.350Z,69.54
2022-11-19T22:43:58.830Z,70.83
2022-11-19T22:46:25.665Z,71.14
2022-11-19T22:48:52.441Z,71.53
2022-11-19T22:51:21.611Z,71.83
2022-11-19T22:53:49.493Z,71.74
2022-11-19T22:56:18.615Z,72.22
2022-11-19T22:58:45.355Z,72.09
2022-11-19T23:01:24.338Z,72.75
2022-11-19T23:03:51.333Z,73.42
2022-11-19T23:06:18.018Z,73.12
2022-11-19T23:08:44.935Z,73.60
2022-11-19T23:11:13.266Z,74.21
2022-11-19T23:13:41.485Z,73.66
2022-11-19T23:16:09.631Z,73.74
2022-11-19T23:18:41.054Z,74.46
2022-11-19T23:21:13.442Z,74.48
2022-11-19T23:23:40.133Z,74.22
2022-11-19T23:26:08.024Z,74.09
2022-11-19T23:28:36.375Z,74.23
2022-11-19T23:31:24.560Z,73.59
2022-11-19T23:33:57.473Z,73.93
2022-11-19T23:36:33.523Z,72.17
2022-11-19T23:39:00.620Z,72.06
2022-11-19T23:41:27.835Z,73.09
2022-11-19T23:43:55.180Z,72.01
2022-11-19T23:46:27.337Z,72.43
2022-11-19T23:48:55.307Z,72.74
2022-11-19T23:51:32.847Z,72.08
2022-11-19T23:53:59.384Z,71.96
2022-11-19T23:56:26.817Z,72.21
2022-11-19T23:58:53.442Z,72.22
